sensor_id;sensor_type;location;lat;lon;timestamp;temperature;humidity
18597;DHT22;9428;50.950;6.912;2024-02-15T00:01:27;12.30;99.90
18597;DHT22;9428;50.950;6.912;2024-02-15T00:04:15;12.00;99.90
18597;DHT22;9428;50.950;6.912;2024-02-15T00:07:04;12.10;99.90
18597;DHT22;9428;50.950;6.912;2024-02-15T00:09:51;12.10;99.90
18597;DHT22;9428;50.950;6.912;2024-02-15T00:12:39;12.10;99.90
18597;DHT22;9428;50.950;6.912;2024-02-15T00:15:27;12.10;99.90
18597;DHT22;9428;50.950;6.912;2024-02-15T00:18:16;12.10;99.90
18597;DHT22;9428;50.950;6.912;2024-02-15T00:21:04;12.10;99.90
18597;DHT22;9428;50.950;6.912;2024-02-15T00:23:52;12.00;99.90
18597;DHT22;9428;50.950;6.912;2024-02-15T00:26:41;12.50;99.90
18597;DHT22;9428;50.950;6.912;2024-02-15T00:29:29;12.00;99.90
18597;DHT22;9428;50.950;6.912;2024-02-15T00:32:17;12.00;99.90
18597;DHT22;9428;50.950;6.912;2024-02-15T00:35:07;12.00;99.90
18597;DHT22;9428;50.950;6.912;2024-02-15T00:37:55;12.00;99.90
18597;DHT22;9428;50.950;6.912;2024-02-15T00:40:43;12.10;99.90
18597;DHT22;9428;50.950;6.912;2024-02-15T00:43:34;12.10;99.90
18597;DHT22;9428;50.950;6.912;2024-02-15T00:46:22;12.10;99.90
18597;DHT22;9428;50.950;6.912;2024-02-15T00:49:09;12.10;99.90
18597;DHT22;9428;50.950;6.912;2024-02-15T00:52:05;12.10;99.90
18597;DHT22;9428;50.950;6.912;2024-02-15T00:54:53;12.10;99.90
18597;DHT22;9428;50.950;6.912;2024-02-15T00:57:40;12.20;99.90
18597;DHT22;9428;50.950;6.912;2024-02-15T01:00:28;12.20;99.90
18597;DHT22;9428;50.950;6.912;2024-02-15T01:03:15;12.20;99.90
18597;DHT22;9428;50.950;6.912;2024-02-15T01:06:03;12.70;99.90
18597;DHT22;9428;50.950;6.912;2024-02-15T01:08:52;12.20;99.90
18597;DHT22;9428;50.950;6.912;2024-02-15T01:11:40;12.20;99.90
18597;DHT22;9428;50.950;6.912;2024-02-15T01:14:27;12.10;99.90
18597;DHT22;9428;50.950;6.912;2024-02-15T01:17:16;12.10;99.90
18597;DHT22;9428;50.950;6.912;2024-02-15T01:20:04;12.10;99.90
18597;DHT22;9428;50.950;6.912;2024-02-15T01:22:53;12.00;99.90
18597;DHT22;9428;50.950;6.912;2024-02-15T01:25:42;12.00;99.90
18597;DHT22;9428;50.950;6.912;2024-02-15T01:28:29;12.00;99.90
18597;DHT22;9428;50.950;6.912;2024-02-15T01:31:16;12.10;99.90
18597;DHT22;9428;50.950;6.912;2024-02-15T01:34:07;12.00;99.90
18597;DHT22;9428;50.950;6.912;2024-02-15T01:36:55;12.00;99.90
18597;DHT22;9428;50.950;6.912;2024-02-15T01:39:42;12.00;99.90
18597;DHT22;9428;50.950;6.912;2024-02-15T01:42:31;12.00;99.90
18597;DHT22;9428;50.950;6.912;2024-02-15T01:45:18;12.50;99.90
18597;DHT22;9428;50.950;6.912;2024-02-15T01:48:07;12.00;99.90
18597;DHT22;9428;50.950;6.912;2024-02-15T01:50:56;12.00;99.90
18597;DHT22;9428;50.950;6.912;2024-02-15T01:53:44;12.40;99.90
18597;DHT22;9428;50.950;6.912;2024-02-15T01:56:32;12.00;99.90
18597;DHT22;9428;50.950;6.912;2024-02-15T01:59:22;12.60;99.90
18597;DHT22;9428;50.950;6.912;2024-02-15T02:02:13;12.10;99.90
18597;DHT22;9428;50.950;6.912;2024-02-15T02:05:02;12.20;99.90
18597;DHT22;9428;50.950;6.912;2024-02-15T02:07:49;12.10;99.90
18597;DHT22;9428;50.950;6.912;2024-02-15T02:10:37;12.10;99.90
18597;DHT22;9428;50.950;6.912;2024-02-15T02:13:24;12.00;99.90
18597;DHT22;9428;50.950;6.912;2024-02-15T02:16:26;12.10;99.90
18597;DHT22;9428;50.950;6.912;2024-02-15T02:19:14;12.00;99.90
18597;DHT22;9428;50.950;6.912;2024-02-15T02:22:03;12.00;99.90
18597;DHT22;9428;50.950;6.912;2024-02-15T02:25:01;12.10;99.90
18597;DHT22;9428;50.950;6.912;2024-02-15T02:27:51;12.10;99.90
18597;DHT22;9428;50.950;6.912;2024-02-15T02:30:38;12.00;99.90
18597;DHT22;9428;50.950;6.912;2024-02-15T02:33:27;12.40;99.90
18597;DHT22;9428;50.950;6.912;2024-02-15T02:36:15;12.10;99.90
18597;DHT22;9428;50.950;6.912;2024-02-15T02:39:02;12.00;99.90
18597;DHT22;9428;50.950;6.912;2024-02-15T02:41:51;12.30;99.90
18597;DHT22;9428;50.950;6.912;2024-02-15T02:44:38;12.10;99.90
18597;DHT22;9428;50.950;6.912;2024-02-15T02:47:26;12.40;99.90
18597;DHT22;9428;50.950;6.912;2024-02-15T02:50:13;12.10;99.90
18597;DHT22;9428;50.950;6.912;2024-02-15T02:53:01;12.20;99.90
18597;DHT22;9428;50.950;6.912;2024-02-15T02:55:48;12.50;99.90
18597;DHT22;9428;50.950;6.912;2024-02-15T02:58:37;12.50;99.90
18597;DHT22;9428;50.950;6.912;2024-02-15T03:01:28;12.10;99.90
18597;DHT22;9428;50.950;6.912;2024-02-15T03:04:15;12.10;99.90
18597;DHT22;9428;50.950;6.912;2024-02-15T03:07:03;12.00;99.90
18597;DHT22;9428;50.950;6.912;2024-02-15T03:09:51;12.00;99.90
18597;DHT22;9428;50.950;6.912;2024-02-15T03:12:38;12.00;99.90
18597;DHT22;9428;50.950;6.912;2024-02-15T03:15:27;12.00;99.90
18597;DHT22;9428;50.950;6.912;2024-02-15T03:18:15;12.00;99.90
18597;DHT22;9428;50.950;6.912;2024-02-15T03:21:03;11.90;99.90
18597;DHT22;9428;50.950;6.912;2024-02-15T03:23:51;11.80;99.90
18597;DHT22;9428;50.950;6.912;2024-02-15T03:26:38;11.90;99.90
18597;DHT22;9428;50.950;6.912;2024-02-15T03:29:26;11.90;99.90
18597;DHT22;9428;50.950;6.912;2024-02-15T03:32:16;11.90;99.90
18597;DHT22;9428;50.950;6.912;2024-02-15T03:35:04;12.00;99.90
18597;DHT22;9428;50.950;6.912;2024-02-15T03:37:53;11.90;99.90
18597;DHT22;9428;50.950;6.912;2024-02-15T03:40:40;12.00;99.90
18597;DHT22;9428;50.950;6.912;2024-02-15T03:43:27;11.90;99.90
18597;DHT22;9428;50.950;6.912;2024-02-15T03:46:15;11.90;99.90
18597;DHT22;9428;50.950;6.912;2024-02-15T03:49:06;12.00;99.90
18597;DHT22;9428;50.950;6.912;2024-02-15T03:51:54;12.00;99.90
18597;DHT22;9428;50.950;6.912;2024-02-15T03:54:42;12.00;99.90
18597;DHT22;9428;50.950;6.912;2024-02-15T03:57:29;12.30;99.90
18597;DHT22;9428;50.950;6.912;2024-02-15T04:00:17;12.00;99.90
18597;DHT22;9428;50.950;6.912;2024-02-15T04:03:06;12.10;99.90
18597;DHT22;9428;50.950;6.912;2024-02-15T04:05:56;12.10;99.90
18597;DHT22;9428;50.950;6.912;2024-02-15T04:08:44;12.00;99.90
18597;DHT22;9428;50.950;6.912;2024-02-15T04:11:31;12.50;99.90
18597;DHT22;9428;50.950;6.912;2024-02-15T04:14:19;12.10;99.90
18597;DHT22;9428;50.950;6.912;2024-02-15T04:17:07;12.10;99.90
18597;DHT22;9428;50.950;6.912;2024-02-15T04:19:54;12.10;99.90
18597;DHT22;9428;50.950;6.912;2024-02-15T04:22:43;12.10;99.90
18597;DHT22;9428;50.950;6.912;2024-02-15T04:25:31;12.10;99.90
18597;DHT22;9428;50.950;6.912;2024-02-15T04:28:19;12.10;99.90
18597;DHT22;9428;50.950;6.912;2024-02-15T04:31:07;12.10;99.90
18597;DHT22;9428;50.950;6.912;2024-02-15T04:33:54;12.10;99.90
18597;DHT22;9428;50.950;6.912;2024-02-15T04:36:45;12.10;99.90
18597;DHT22;9428;50.950;6.912;2024-02-15T04:39:37;12.10;99.90
18597;DHT22;9428;50.950;6.912;2024-02-15T04:42:24;12.10;99.90
18597;DHT22;9428;50.950;6.912;2024-02-15T04:45:13;12.10;99.90
18597;DHT22;9428;50.950;6.912;2024-02-15T04:48:01;12.20;99.90
18597;DHT22;9428;50.950;6.912;2024-02-15T04:50:49;12.10;99.90
18597;DHT22;9428;50.950;6.912;2024-02-15T04:53:36;12.20;99.90
18597;DHT22;9428;50.950;6.912;2024-02-15T04:56:26;12.20;99.90
18597;DHT22;9428;50.950;6.912;2024-02-15T04:59:14;12.20;99.90
18597;DHT22;9428;50.950;6.912;2024-02-15T05:02:02;12.10;99.90
18597;DHT22;9428;50.950;6.912;2024-02-15T05:04:49;12.20;99.90
18597;DHT22;9428;50.950;6.912;2024-02-15T05:07:41;12.20;99.90
18597;DHT22;9428;50.950;6.912;2024-02-15T05:10:29;12.20;99.90
18597;DHT22;9428;50.950;6.912;2024-02-15T05:13:18;12.20;99.90
18597;DHT22;9428;50.950;6.912;2024-02-15T05:16:06;12.20;99.90
18597;DHT22;9428;50.950;6.912;2024-02-15T05:18:53;12.10;99.90
18597;DHT22;9428;50.950;6.912;2024-02-15T05:21:42;12.10;99.90
18597;DHT22;9428;50.950;6.912;2024-02-15T05:24:32;12.20;99.90
18597;DHT22;9428;50.950;6.912;2024-02-15T05:27:20;12.20;99.90
18597;DHT22;9428;50.950;6.912;2024-02-15T05:30:11;12.20;99.90
18597;DHT22;9428;50.950;6.912;2024-02-15T05:32:59;12.30;99.90
18597;DHT22;9428;50.950;6.912;2024-02-15T05:35:47;11.80;99.90
18597;DHT22;9428;50.950;6.912;2024-02-15T05:38:37;12.30;99.90
18597;DHT22;9428;50.950;6.912;2024-02-15T05:41:24;12.20;99.90
18597;DHT22;9428;50.950;6.912;2024-02-15T05:44:12;12.20;99.90
18597;DHT22;9428;50.950;6.912;2024-02-15T05:47:05;12.20;99.90
18597;DHT22;9428;50.950;6.912;2024-02-15T05:49:55;12.20;99.90
18597;DHT22;9428;50.950;6.912;2024-02-15T05:52:43;12.20;99.90
18597;DHT22;9428;50.950;6.912;2024-02-15T05:55:30;12.30;99.90
18597;DHT22;9428;50.950;6.912;2024-02-15T05:58:20;12.20;99.90
18597;DHT22;9428;50.950;6.912;2024-02-15T06:01:08;12.60;99.90
18597;DHT22;9428;50.950;6.912;2024-02-15T06:03:59;12.80;99.90
18597;DHT22;9428;50.950;6.912;2024-02-15T06:06:46;12.20;99.90
18597;DHT22;9428;50.950;6.912;2024-02-15T06:09:36;12.20;99.90
18597;DHT22;9428;50.950;6.912;2024-02-15T06:12:29;12.10;99.90
18597;DHT22;9428;50.950;6.912;2024-02-15T06:15:18;12.20;99.90
18597;DHT22;9428;50.950;6.912;2024-02-15T06:18:06;12.10;99.90
18597;DHT22;9428;50.950;6.912;2024-02-15T06:20:58;12.10;99.90
18597;DHT22;9428;50.950;6.912;2024-02-15T06:23:45;12.10;99.90
18597;DHT22;9428;50.950;6.912;2024-02-15T06:26:34;12.10;99.90
18597;DHT22;9428;50.950;6.912;2024-02-15T06:29:21;12.10;99.90
18597;DHT22;9428;50.950;6.912;2024-02-15T06:32:26;12.20;99.90
18597;DHT22;9428;50.950;6.912;2024-02-15T06:35:31;12.20;99.90
18597;DHT22;9428;50.950;6.912;2024-02-15T06:38:37;12.20;99.90
18597;DHT22;9428;50.950;6.912;2024-02-15T06:41:41;12.20;99.90
18597;DHT22;9428;50.950;6.912;2024-02-15T06:44:28;12.20;99.90
18597;DHT22;9428;50.950;6.912;2024-02-15T06:47:19;12.20;99.90
18597;DHT22;9428;50.950;6.912;2024-02-15T06:50:08;12.30;99.90
18597;DHT22;9428;50.950;6.912;2024-02-15T06:52:56;12.30;99.90
18597;DHT22;9428;50.950;6.912;2024-02-15T06:55:44;12.30;99.90
18597;DHT22;9428;50.950;6.912;2024-02-15T06:58:33;12.30;99.90
18597;DHT22;9428;50.950;6.912;2024-02-15T07:01:20;12.40;99.90
18597;DHT22;9428;50.950;6.912;2024-02-15T07:04:08;12.30;99.90
18597;DHT22;9428;50.950;6.912;2024-02-15T07:06:56;12.30;99.90
18597;DHT22;9428;50.950;6.912;2024-02-15T07:09:43;12.20;99.90
18597;DHT22;9428;50.950;6.912;2024-02-15T07:12:32;12.30;99.90
18597;DHT22;9428;50.950;6.912;2024-02-15T07:15:20;12.20;99.90
18597;DHT22;9428;50.950;6.912;2024-02-15T07:18:07;12.30;99.90
18597;DHT22;9428;50.950;6.912;2024-02-15T07:20:55;12.30;99.90
18597;DHT22;9428;50.950;6.912;2024-02-15T07:23:45;12.30;99.90
18597;DHT22;9428;50.950;6.912;2024-02-15T07:26:32;12.30;99.90
18597;DHT22;9428;50.950;6.912;2024-02-15T07:29:22;12.30;99.90
18597;DHT22;9428;50.950;6.912;2024-02-15T07:32:11;12.30;99.90
18597;DHT22;9428;50.950;6.912;2024-02-15T07:34:59;12.30;99.90
18597;DHT22;9428;50.950;6.912;2024-02-15T07:37:53;12.30;99.90
18597;DHT22;9428;50.950;6.912;2024-02-15T07:40:41;12.30;99.90
18597;DHT22;9428;50.950;6.912;2024-02-15T07:43:29;12.30;99.90
18597;DHT22;9428;50.950;6.912;2024-02-15T07:46:17;12.30;99.90
18597;DHT22;9428;50.950;6.912;2024-02-15T07:49:05;12.30;99.90
18597;DHT22;9428;50.950;6.912;2024-02-15T07:51:54;12.30;99.90
18597;DHT22;9428;50.950;6.912;2024-02-15T07:54:41;12.40;99.90
18597;DHT22;9428;50.950;6.912;2024-02-15T07:57:29;12.40;99.90
18597;DHT22;9428;50.950;6.912;2024-02-15T08:00:17;12.40;99.90
18597;DHT22;9428;50.950;6.912;2024-02-15T08:03:07;12.40;99.90
18597;DHT22;9428;50.950;6.912;2024-02-15T08:05:54;12.40;99.90
18597;DHT22;9428;50.950;6.912;2024-02-15T08:08:42;12.40;99.90
18597;DHT22;9428;50.950;6.912;2024-02-15T08:11:31;12.40;99.90
18597;DHT22;9428;50.950;6.912;2024-02-15T08:14:19;12.40;99.90
18597;DHT22;9428;50.950;6.912;2024-02-15T08:17:07;12.80;99.90
18597;DHT22;9428;50.950;6.912;2024-02-15T08:19:56;12.40;99.90
18597;DHT22;9428;50.950;6.912;2024-02-15T08:22:43;12.30;99.90
18597;DHT22;9428;50.950;6.912;2024-02-15T08:25:31;12.40;99.90
18597;DHT22;9428;50.950;6.912;2024-02-15T08:28:18;12.30;99.90
18597;DHT22;9428;50.950;6.912;2024-02-15T08:31:06;11.90;99.90
18597;DHT22;9428;50.950;6.912;2024-02-15T08:33:55;12.40;99.90
18597;DHT22;9428;50.950;6.912;2024-02-15T08:36:44;12.40;99.90
18597;DHT22;9428;50.950;6.912;2024-02-15T08:39:34;12.40;99.90
18597;DHT22;9428;50.950;6.912;2024-02-15T08:42:22;12.40;99.90
18597;DHT22;9428;50.950;6.912;2024-02-15T08:45:11;12.40;99.90
18597;DHT22;9428;50.950;6.912;2024-02-15T08:47:58;12.30;99.90
18597;DHT22;9428;50.950;6.912;2024-02-15T08:50:46;12.30;99.90
18597;DHT22;9428;50.950;6.912;2024-02-15T08:53:35;12.30;99.90
18597;DHT22;9428;50.950;6.912;2024-02-15T08:56:23;12.40;99.90
18597;DHT22;9428;50.950;6.912;2024-02-15T08:59:10;12.40;99.90
18597;DHT22;9428;50.950;6.912;2024-02-15T09:01:58;12.40;99.90
18597;DHT22;9428;50.950;6.912;2024-02-15T09:04:46;12.50;99.90
18597;DHT22;9428;50.950;6.912;2024-02-15T09:07:34;12.50;99.90
18597;DHT22;9428;50.950;6.912;2024-02-15T09:10:23;12.60;99.90
18597;DHT22;9428;50.950;6.912;2024-02-15T09:13:12;12.60;99.90
18597;DHT22;9428;50.950;6.912;2024-02-15T09:16:01;12.60;99.90
18597;DHT22;9428;50.950;6.912;2024-02-15T09:18:49;12.70;99.90
18597;DHT22;9428;50.950;6.912;2024-02-15T09:21:36;12.70;99.90
18597;DHT22;9428;50.950;6.912;2024-02-15T09:24:24;12.70;99.90
18597;DHT22;9428;50.950;6.912;2024-02-15T09:27:13;12.70;99.90
18597;DHT22;9428;50.950;6.912;2024-02-15T09:30:01;12.90;99.90
18597;DHT22;9428;50.950;6.912;2024-02-15T09:32:48;12.90;99.90
18597;DHT22;9428;50.950;6.912;2024-02-15T09:35:36;12.90;99.90
18597;DHT22;9428;50.950;6.912;2024-02-15T09:38:24;12.90;99.90
18597;DHT22;9428;50.950;6.912;2024-02-15T09:41:12;12.90;99.90
18597;DHT22;9428;50.950;6.912;2024-02-15T09:44:01;13.00;99.90
18597;DHT22;9428;50.950;6.912;2024-02-15T09:46:55;13.10;99.90
18597;DHT22;9428;50.950;6.912;2024-02-15T09:49:44;13.10;99.90
18597;DHT22;9428;50.950;6.912;2024-02-15T09:52:34;13.20;99.90
18597;DHT22;9428;50.950;6.912;2024-02-15T09:55:22;13.20;99.90
18597;DHT22;9428;50.950;6.912;2024-02-15T09:58:12;13.30;99.90
18597;DHT22;9428;50.950;6.912;2024-02-15T10:01:04;13.40;99.90
18597;DHT22;9428;50.950;6.912;2024-02-15T10:03:55;13.30;99.90
18597;DHT22;9428;50.950;6.912;2024-02-15T10:06:45;13.50;99.90
18597;DHT22;9428;50.950;6.912;2024-02-15T10:09:33;13.50;99.90
18597;DHT22;9428;50.950;6.912;2024-02-15T10:12:22;13.50;99.90
18597;DHT22;9428;50.950;6.912;2024-02-15T10:15:27;13.50;99.90
18597;DHT22;9428;50.950;6.912;2024-02-15T10:18:16;13.50;99.90
18597;DHT22;9428;50.950;6.912;2024-02-15T10:21:08;13.50;99.90
18597;DHT22;9428;50.950;6.912;2024-02-15T10:24:05;13.50;99.90
18597;DHT22;9428;50.950;6.912;2024-02-15T10:27:00;13.50;99.90
18597;DHT22;9428;50.950;6.912;2024-02-15T10:29:50;13.50;99.90
18597;DHT22;9428;50.950;6.912;2024-02-15T10:32:39;13.50;99.90
18597;DHT22;9428;50.950;6.912;2024-02-15T10:35:28;13.60;99.90
18597;DHT22;9428;50.950;6.912;2024-02-15T10:38:16;13.70;99.90
18597;DHT22;9428;50.950;6.912;2024-02-15T10:41:05;13.60;99.90
18597;DHT22;9428;50.950;6.912;2024-02-15T10:43:54;14.20;99.90
18597;DHT22;9428;50.950;6.912;2024-02-15T10:46:41;13.80;99.90
18597;DHT22;9428;50.950;6.912;2024-02-15T10:49:29;13.70;99.90
18597;DHT22;9428;50.950;6.912;2024-02-15T10:52:19;13.80;99.90
18597;DHT22;9428;50.950;6.912;2024-02-15T10:55:09;13.90;99.90
18597;DHT22;9428;50.950;6.912;2024-02-15T10:58:01;14.20;99.90
18597;DHT22;9428;50.950;6.912;2024-02-15T11:00:51;13.90;99.90
18597;DHT22;9428;50.950;6.912;2024-02-15T11:03:48;14.00;99.90
18597;DHT22;9428;50.950;6.912;2024-02-15T11:06:39;14.00;99.90
18597;DHT22;9428;50.950;6.912;2024-02-15T11:09:29;14.00;99.90
18597;DHT22;9428;50.950;6.912;2024-02-15T11:12:17;14.00;99.90
18597;DHT22;9428;50.950;6.912;2024-02-15T11:15:05;14.10;99.90
18597;DHT22;9428;50.950;6.912;2024-02-15T11:17:53;14.10;99.90
18597;DHT22;9428;50.950;6.912;2024-02-15T11:20:47;14.10;99.90
18597;DHT22;9428;50.950;6.912;2024-02-15T11:23:39;14.10;99.90
18597;DHT22;9428;50.950;6.912;2024-02-15T11:26:45;14.20;99.90
18597;DHT22;9428;50.950;6.912;2024-02-15T11:29:50;14.10;99.90
18597;DHT22;9428;50.950;6.912;2024-02-15T11:32:42;14.20;99.90
18597;DHT22;9428;50.950;6.912;2024-02-15T11:35:33;14.20;99.90
18597;DHT22;9428;50.950;6.912;2024-02-15T11:38:30;14.30;99.90
18597;DHT22;9428;50.950;6.912;2024-02-15T11:41:18;14.30;99.90
18597;DHT22;9428;50.950;6.912;2024-02-15T11:44:16;14.70;99.90
18597;DHT22;9428;50.950;6.912;2024-02-15T11:47:04;14.30;99.90
18597;DHT22;9428;50.950;6.912;2024-02-15T11:49:53;14.00;99.90
18597;DHT22;9428;50.950;6.912;2024-02-15T11:52:41;14.40;99.90
18597;DHT22;9428;50.950;6.912;2024-02-15T11:55:29;14.70;99.90
18597;DHT22;9428;50.950;6.912;2024-02-15T11:58:17;14.40;99.90
18597;DHT22;9428;50.950;6.912;2024-02-15T12:01:10;14.40;99.90
18597;DHT22;9428;50.950;6.912;2024-02-15T12:04:16;14.40;99.90
18597;DHT22;9428;50.950;6.912;2024-02-15T12:07:21;14.40;99.90
18597;DHT22;9428;50.950;6.912;2024-02-15T12:10:26;15.10;99.90
18597;DHT22;9428;50.950;6.912;2024-02-15T12:13:31;14.50;99.90
18597;DHT22;9428;50.950;6.912;2024-02-15T12:16:37;14.60;99.90
18597;DHT22;9428;50.950;6.912;2024-02-15T12:19:41;14.60;99.90
18597;DHT22;9428;50.950;6.912;2024-02-15T12:22:32;15.30;99.90
18597;DHT22;9428;50.950;6.912;2024-02-15T12:25:21;14.70;99.90
18597;DHT22;9428;50.950;6.912;2024-02-15T12:28:14;14.80;99.90
18597;DHT22;9428;50.950;6.912;2024-02-15T12:31:02;14.80;99.90
18597;DHT22;9428;50.950;6.912;2024-02-15T12:34:04;14.80;99.90
18597;DHT22;9428;50.950;6.912;2024-02-15T12:37:05;14.90;99.90
18597;DHT22;9428;50.950;6.912;2024-02-15T12:39:52;15.40;99.90
18597;DHT22;9428;50.950;6.912;2024-02-15T12:42:40;14.90;99.90
18597;DHT22;9428;50.950;6.912;2024-02-15T12:45:27;14.70;99.90
18597;DHT22;9428;50.950;6.912;2024-02-15T12:48:15;15.00;99.90
18597;DHT22;9428;50.950;6.912;2024-02-15T12:51:14;15.00;99.90
18597;DHT22;9428;50.950;6.912;2024-02-15T12:54:08;15.10;99.90
18597;DHT22;9428;50.950;6.912;2024-02-15T12:57:07;15.10;99.90
18597;DHT22;9428;50.950;6.912;2024-02-15T12:59:55;15.10;99.90
18597;DHT22;9428;50.950;6.912;2024-02-15T13:02:42;15.10;99.90
18597;DHT22;9428;50.950;6.912;2024-02-15T13:05:31;15.10;99.90
18597;DHT22;9428;50.950;6.912;2024-02-15T13:08:20;15.10;99.90
18597;DHT22;9428;50.950;6.912;2024-02-15T13:11:07;15.20;99.90
18597;DHT22;9428;50.950;6.912;2024-02-15T13:13:58;15.20;99.90
18597;DHT22;9428;50.950;6.912;2024-02-15T13:16:46;15.10;99.90
18597;DHT22;9428;50.950;6.912;2024-02-15T13:19:35;15.00;99.90
18597;DHT22;9428;50.950;6.912;2024-02-15T13:22:22;15.00;99.90
18597;DHT22;9428;50.950;6.912;2024-02-15T13:25:12;14.70;99.90
18597;DHT22;9428;50.950;6.912;2024-02-15T13:28:05;15.00;99.90
18597;DHT22;9428;50.950;6.912;2024-02-15T13:30:54;14.40;99.90
18597;DHT22;9428;50.950;6.912;2024-02-15T13:33:42;15.00;99.90
18597;DHT22;9428;50.950;6.912;2024-02-15T13:36:29;15.00;99.90
18597;DHT22;9428;50.950;6.912;2024-02-15T13:39:17;15.00;99.90
18597;DHT22;9428;50.950;6.912;2024-02-15T13:42:09;15.00;99.90
18597;DHT22;9428;50.950;6.912;2024-02-15T13:44:56;14.90;99.90
18597;DHT22;9428;50.950;6.912;2024-02-15T13:47:46;15.00;99.90
18597;DHT22;9428;50.950;6.912;2024-02-15T13:50:34;15.00;99.90
18597;DHT22;9428;50.950;6.912;2024-02-15T13:53:22;15.10;99.90
18597;DHT22;9428;50.950;6.912;2024-02-15T13:56:10;15.20;99.90
18597;DHT22;9428;50.950;6.912;2024-02-15T13:58:59;15.20;99.90
18597;DHT22;9428;50.950;6.912;2024-02-15T14:01:46;15.90;99.90
18597;DHT22;9428;50.950;6.912;2024-02-15T14:04:33;15.20;99.90
18597;DHT22;9428;50.950;6.912;2024-02-15T14:07:21;15.00;99.90
18597;DHT22;9428;50.950;6.912;2024-02-15T14:10:09;15.20;99.90
18597;DHT22;9428;50.950;6.912;2024-02-15T14:12:58;15.20;99.90
18597;DHT22;9428;50.950;6.912;2024-02-15T14:15:48;15.20;99.90
18597;DHT22;9428;50.950;6.912;2024-02-15T14:18:37;15.20;99.90
18597;DHT22;9428;50.950;6.912;2024-02-15T14:21:25;15.20;99.90
18597;DHT22;9428;50.950;6.912;2024-02-15T14:24:12;15.20;99.90
18597;DHT22;9428;50.950;6.912;2024-02-15T14:26:59;15.20;99.90
18597;DHT22;9428;50.950;6.912;2024-02-15T14:29:47;15.20;99.90
18597;DHT22;9428;50.950;6.912;2024-02-15T14:33:04;15.30;99.90
18597;DHT22;9428;50.950;6.912;2024-02-15T14:35:54;15.20;99.90
18597;DHT22;9428;50.950;6.912;2024-02-15T14:38:42;15.20;99.90
18597;DHT22;9428;50.950;6.912;2024-02-15T14:41:29;15.20;99.90
18597;DHT22;9428;50.950;6.912;2024-02-15T14:44:17;15.10;99.90
18597;DHT22;9428;50.950;6.912;2024-02-15T14:47:04;15.10;99.90
18597;DHT22;9428;50.950;6.912;2024-02-15T14:49:53;15.10;99.90
18597;DHT22;9428;50.950;6.912;2024-02-15T14:52:41;15.10;99.90
18597;DHT22;9428;50.950;6.912;2024-02-15T14:55:29;15.10;99.90
18597;DHT22;9428;50.950;6.912;2024-02-15T14:58:17;15.10;99.90
18597;DHT22;9428;50.950;6.912;2024-02-15T15:01:05;15.10;99.90
18597;DHT22;9428;50.950;6.912;2024-02-15T15:03:54;15.10;99.90
18597;DHT22;9428;50.950;6.912;2024-02-15T15:06:45;15.20;99.90
18597;DHT22;9428;50.950;6.912;2024-02-15T15:10:06;15.10;99.90
18597;DHT22;9428;50.950;6.912;2024-02-15T15:13:11;15.20;99.90
18597;DHT22;9428;50.950;6.912;2024-02-15T15:15:59;15.10;99.90
18597;DHT22;9428;50.950;6.912;2024-02-15T15:18:48;15.20;99.90
18597;DHT22;9428;50.950;6.912;2024-02-15T15:21:35;15.20;99.90
18597;DHT22;9428;50.950;6.912;2024-02-15T15:24:24;15.20;99.90
18597;DHT22;9428;50.950;6.912;2024-02-15T15:27:12;15.10;99.90
18597;DHT22;9428;50.950;6.912;2024-02-15T15:30:00;15.00;99.90
18597;DHT22;9428;50.950;6.912;2024-02-15T15:32:48;15.10;99.90
18597;DHT22;9428;50.950;6.912;2024-02-15T15:35:36;15.20;99.90
18597;DHT22;9428;50.950;6.912;2024-02-15T15:38:23;15.20;99.90
18597;DHT22;9428;50.950;6.912;2024-02-15T15:41:13;15.10;99.90
18597;DHT22;9428;50.950;6.912;2024-02-15T15:44:01;15.40;99.90
18597;DHT22;9428;50.950;6.912;2024-02-15T15:46:50;15.10;99.90
18597;DHT22;9428;50.950;6.912;2024-02-15T15:49:37;15.00;99.90
18597;DHT22;9428;50.950;6.912;2024-02-15T15:52:25;15.00;99.90
18597;DHT22;9428;50.950;6.912;2024-02-15T15:55:13;15.00;99.90
18597;DHT22;9428;50.950;6.912;2024-02-15T15:58:02;15.40;99.90
18597;DHT22;9428;50.950;6.912;2024-02-15T16:00:50;14.90;99.90
18597;DHT22;9428;50.950;6.912;2024-02-15T16:03:37;14.90;99.90
18597;DHT22;9428;50.950;6.912;2024-02-15T16:06:26;15.00;99.90
18597;DHT22;9428;50.950;6.912;2024-02-15T16:09:14;15.00;99.90
18597;DHT22;9428;50.950;6.912;2024-02-15T16:12:03;14.90;99.90
18597;DHT22;9428;50.950;6.912;2024-02-15T16:14:52;14.90;99.90
18597;DHT22;9428;50.950;6.912;2024-02-15T16:17:43;15.00;99.90
18597;DHT22;9428;50.950;6.912;2024-02-15T16:20:31;14.80;99.90
18597;DHT22;9428;50.950;6.912;2024-02-15T16:23:20;14.80;99.90
18597;DHT22;9428;50.950;6.912;2024-02-15T16:26:08;14.80;99.90
18597;DHT22;9428;50.950;6.912;2024-02-15T16:28:55;14.80;99.90
18597;DHT22;9428;50.950;6.912;2024-02-15T16:31:47;14.80;99.90
18597;DHT22;9428;50.950;6.912;2024-02-15T16:34:35;14.70;99.90
18597;DHT22;9428;50.950;6.912;2024-02-15T16:37:26;14.80;99.90
18597;DHT22;9428;50.950;6.912;2024-02-15T16:40:13;14.80;99.90
18597;DHT22;9428;50.950;6.912;2024-02-15T16:43:02;14.70;99.90
18597;DHT22;9428;50.950;6.912;2024-02-15T16:45:50;14.60;99.90
18597;DHT22;9428;50.950;6.912;2024-02-15T16:48:39;14.90;99.90
18597;DHT22;9428;50.950;6.912;2024-02-15T16:51:26;15.20;99.90
18597;DHT22;9428;50.950;6.912;2024-02-15T16:54:15;14.60;99.90
18597;DHT22;9428;50.950;6.912;2024-02-15T16:57:03;14.50;99.90
18597;DHT22;9428;50.950;6.912;2024-02-15T16:59:50;14.50;99.90
18597;DHT22;9428;50.950;6.912;2024-02-15T17:02:41;14.50;99.90
18597;DHT22;9428;50.950;6.912;2024-02-15T17:05:30;14.50;99.90
18597;DHT22;9428;50.950;6.912;2024-02-15T17:08:17;14.40;99.90
18597;DHT22;9428;50.950;6.912;2024-02-15T17:11:05;14.50;99.90
18597;DHT22;9428;50.950;6.912;2024-02-15T17:13:52;14.40;99.90
18597;DHT22;9428;50.950;6.912;2024-02-15T17:16:43;14.40;99.90
18597;DHT22;9428;50.950;6.912;2024-02-15T17:19:30;14.60;99.90
18597;DHT22;9428;50.950;6.912;2024-02-15T17:22:19;14.30;99.90
18597;DHT22;9428;50.950;6.912;2024-02-15T17:25:08;14.30;99.90
18597;DHT22;9428;50.950;6.912;2024-02-15T17:27:57;14.30;99.90
18597;DHT22;9428;50.950;6.912;2024-02-15T17:30:45;14.30;99.90
18597;DHT22;9428;50.950;6.912;2024-02-15T17:33:33;14.20;99.90
18597;DHT22;9428;50.950;6.912;2024-02-15T17:36:20;13.90;99.90
18597;DHT22;9428;50.950;6.912;2024-02-15T17:39:09;14.20;99.90
18597;DHT22;9428;50.950;6.912;2024-02-15T17:41:56;14.20;99.90
18597;DHT22;9428;50.950;6.912;2024-02-15T17:44:43;14.20;99.90
18597;DHT22;9428;50.950;6.912;2024-02-15T17:47:31;14.80;99.90
18597;DHT22;9428;50.950;6.912;2024-02-15T17:50:19;14.10;99.90
18597;DHT22;9428;50.950;6.912;2024-02-15T17:53:08;14.10;99.90
18597;DHT22;9428;50.950;6.912;2024-02-15T17:56:00;14.10;99.90
18597;DHT22;9428;50.950;6.912;2024-02-15T17:58:47;14.20;99.90
18597;DHT22;9428;50.950;6.912;2024-02-15T18:01:35;14.00;99.90
18597;DHT22;9428;50.950;6.912;2024-02-15T18:04:24;14.00;99.90
18597;DHT22;9428;50.950;6.912;2024-02-15T18:07:11;13.90;99.90